Durham, Iowa
Current Conditions -  °F | °C
As of 2:35 AM on Monday 26 Jan 2015 (Local Time) from KPEA Reporting Station
Broken Clouds Broken Clouds  
Wind Chill: 30°   Ceiling: 2400
Heat Index: 30°   Visibility: 10mi
Dew Point: 25°   Wind: 0mph
Humidity: 82%   Direction: NA
Pressure: 30.03"   Gusts: NA
Location:  41.3017°N, 92.9423°W
Report Text: KPEA 260835Z AUTO 00000KT 10SM BKN024 M01/M04 A3003 RMK AO2 T10101037
Loading
Personal Weather Stations






























Interactive Weather Map New forecast layout! Learn more

10-Day Weather Forecast

Advertisements
Track Severe Weather on mobile